sensor_id;sensor_type;location;lat;lon;timestamp;temperature;humidity
34099;DHT22;20374;49.474;10.944;2023-06-10T00:00:40;14.30;99.90
34099;DHT22;20374;49.474;10.944;2023-06-10T00:03:10;14.30;99.90
34099;DHT22;20374;49.474;10.944;2023-06-10T00:05:36;14.20;99.90
34099;DHT22;20374;49.474;10.944;2023-06-10T00:08:05;14.20;99.90
34099;DHT22;20374;49.474;10.944;2023-06-10T00:10:37;14.20;99.90
34099;DHT22;20374;49.474;10.944;2023-06-10T00:13:05;14.20;99.90
34099;DHT22;20374;49.474;10.944;2023-06-10T00:15:35;14.10;99.90
34099;DHT22;20374;49.474;10.944;2023-06-10T00:18:02;14.10;99.90
34099;DHT22;20374;49.474;10.944;2023-06-10T00:20:31;14.20;99.90
34099;DHT22;20374;49.474;10.944;2023-06-10T00:22:58;14.40;99.90
34099;DHT22;20374;49.474;10.944;2023-06-10T00:25:25;14.10;99.90
34099;DHT22;20374;49.474;10.944;2023-06-10T00:27:51;14.10;99.90
34099;DHT22;20374;49.474;10.944;2023-06-10T00:30:17;14.10;99.90
34099;DHT22;20374;49.474;10.944;2023-06-10T00:32:43;14.10;99.90
34099;DHT22;20374;49.474;10.944;2023-06-10T00:35:09;14.00;99.90
34099;DHT22;20374;49.474;10.944;2023-06-10T00:37:35;14.00;99.90
34099;DHT22;20374;49.474;10.944;2023-06-10T00:40:04;14.00;99.90
34099;DHT22;20374;49.474;10.944;2023-06-10T00:42:31;14.00;99.90
34099;DHT22;20374;49.474;10.944;2023-06-10T00:44:57;14.10;99.90
34099;DHT22;20374;49.474;10.944;2023-06-10T00:47:23;14.00;99.90
34099;DHT22;20374;49.474;10.944;2023-06-10T00:49:50;14.00;99.90
34099;DHT22;20374;49.474;10.944;2023-06-10T00:52:16;14.00;99.90
34099;DHT22;20374;49.474;10.944;2023-06-10T00:54:45;14.00;99.90
34099;DHT22;20374;49.474;10.944;2023-06-10T00:57:12;13.90;99.90
34099;DHT22;20374;49.474;10.944;2023-06-10T00:59:39;13.80;99.90
34099;DHT22;20374;49.474;10.944;2023-06-10T01:02:05;13.80;99.90
34099;DHT22;20374;49.474;10.944;2023-06-10T01:04:31;13.80;99.90
34099;DHT22;20374;49.474;10.944;2023-06-10T01:10:16;13.70;99.90
34099;DHT22;20374;49.474;10.944;2023-06-10T01:15:18;13.70;99.90
34099;DHT22;20374;49.474;10.944;2023-06-10T01:17:58;13.70;99.90
34099;DHT22;20374;49.474;10.944;2023-06-10T01:20:28;13.70;99.90
34099;DHT22;20374;49.474;10.944;2023-06-10T01:22:57;13.60;99.90
34099;DHT22;20374;49.474;10.944;2023-06-10T01:25:24;13.60;99.90
34099;DHT22;20374;49.474;10.944;2023-06-10T01:28:27;13.70;99.90
34099;DHT22;20374;49.474;10.944;2023-06-10T01:31:00;13.60;99.90
34099;DHT22;20374;49.474;10.944;2023-06-10T01:33:35;13.60;99.90
34099;DHT22;20374;49.474;10.944;2023-06-10T01:36:03;13.50;99.90
34099;DHT22;20374;49.474;10.944;2023-06-10T01:38:40;13.50;99.90
34099;DHT22;20374;49.474;10.944;2023-06-10T01:41:09;13.50;99.90
34099;DHT22;20374;49.474;10.944;2023-06-10T01:43:38;13.50;99.90
34099;DHT22;20374;49.474;10.944;2023-06-10T01:46:04;13.50;99.90
34099;DHT22;20374;49.474;10.944;2023-06-10T01:48:30;13.40;99.90
34099;DHT22;20374;49.474;10.944;2023-06-10T01:50:56;13.50;99.90
34099;DHT22;20374;49.474;10.944;2023-06-10T01:53:22;13.50;99.90
34099;DHT22;20374;49.474;10.944;2023-06-10T01:55:48;13.40;99.90
34099;DHT22;20374;49.474;10.944;2023-06-10T01:58:14;13.40;99.90
34099;DHT22;20374;49.474;10.944;2023-06-10T02:00:40;13.40;99.90
34099;DHT22;20374;49.474;10.944;2023-06-10T02:03:08;13.40;99.90
34099;DHT22;20374;49.474;10.944;2023-06-10T02:05:33;13.30;99.90
34099;DHT22;20374;49.474;10.944;2023-06-10T02:07:59;13.30;99.90
34099;DHT22;20374;49.474;10.944;2023-06-10T02:10:26;13.30;99.90
34099;DHT22;20374;49.474;10.944;2023-06-10T02:12:52;13.30;99.90
34099;DHT22;20374;49.474;10.944;2023-06-10T02:15:18;13.30;99.90
34099;DHT22;20374;49.474;10.944;2023-06-10T02:17:46;13.30;99.90
34099;DHT22;20374;49.474;10.944;2023-06-10T02:20:12;13.30;99.90
34099;DHT22;20374;49.474;10.944;2023-06-10T02:22:39;13.30;99.90
34099;DHT22;20374;49.474;10.944;2023-06-10T02:25:07;13.20;99.90
34099;DHT22;20374;49.474;10.944;2023-06-10T02:27:33;13.30;99.90
34099;DHT22;20374;49.474;10.944;2023-06-10T02:29:59;13.20;99.90
34099;DHT22;20374;49.474;10.944;2023-06-10T02:32:25;13.20;99.90
34099;DHT22;20374;49.474;10.944;2023-06-10T02:34:52;13.10;99.90
34099;DHT22;20374;49.474;10.944;2023-06-10T02:37:19;13.10;99.90
34099;DHT22;20374;49.474;10.944;2023-06-10T02:39:46;13.10;99.90
34099;DHT22;20374;49.474;10.944;2023-06-10T02:42:12;13.10;99.90
34099;DHT22;20374;49.474;10.944;2023-06-10T02:44:38;13.10;99.90
34099;DHT22;20374;49.474;10.944;2023-06-10T02:47:07;13.10;99.90
34099;DHT22;20374;49.474;10.944;2023-06-10T02:49:35;13.10;99.90
34099;DHT22;20374;49.474;10.944;2023-06-10T02:52:01;13.10;99.90
34099;DHT22;20374;49.474;10.944;2023-06-10T02:54:28;13.10;99.90
34099;DHT22;20374;49.474;10.944;2023-06-10T02:56:55;13.00;99.90
34099;DHT22;20374;49.474;10.944;2023-06-10T02:59:24;13.00;99.90
34099;DHT22;20374;49.474;10.944;2023-06-10T03:01:50;13.00;99.90
34099;DHT22;20374;49.474;10.944;2023-06-10T03:04:16;13.00;99.90
34099;DHT22;20374;49.474;10.944;2023-06-10T03:06:51;13.00;99.90
34099;DHT22;20374;49.474;10.944;2023-06-10T03:09:25;13.00;99.90
34099;DHT22;20374;49.474;10.944;2023-06-10T03:11:55;13.00;99.90
34099;DHT22;20374;49.474;10.944;2023-06-10T03:14:21;13.00;99.90
34099;DHT22;20374;49.474;10.944;2023-06-10T03:16:47;13.00;99.90
34099;DHT22;20374;49.474;10.944;2023-06-10T03:19:14;13.00;99.90
34099;DHT22;20374;49.474;10.944;2023-06-10T03:21:44;13.00;99.90
34099;DHT22;20374;49.474;10.944;2023-06-10T03:24:13;13.00;99.90
34099;DHT22;20374;49.474;10.944;2023-06-10T03:26:39;13.10;99.90
34099;DHT22;20374;49.474;10.944;2023-06-10T03:29:06;13.10;99.90
34099;DHT22;20374;49.474;10.944;2023-06-10T03:31:34;13.10;99.90
34099;DHT22;20374;49.474;10.944;2023-06-10T03:34:05;13.00;99.90
34099;DHT22;20374;49.474;10.944;2023-06-10T03:36:31;13.00;99.90
34099;DHT22;20374;49.474;10.944;2023-06-10T03:38:57;13.00;99.90
34099;DHT22;20374;49.474;10.944;2023-06-10T03:41:24;13.00;99.90
34099;DHT22;20374;49.474;10.944;2023-06-10T03:43:51;13.00;99.90
34099;DHT22;20374;49.474;10.944;2023-06-10T03:46:17;13.10;99.90
34099;DHT22;20374;49.474;10.944;2023-06-10T03:48:44;13.10;99.90
34099;DHT22;20374;49.474;10.944;2023-06-10T03:51:10;13.20;99.90
34099;DHT22;20374;49.474;10.944;2023-06-10T03:53:36;13.20;99.90
34099;DHT22;20374;49.474;10.944;2023-06-10T03:56:02;13.30;99.90
34099;DHT22;20374;49.474;10.944;2023-06-10T03:58:29;13.40;99.90
34099;DHT22;20374;49.474;10.944;2023-06-10T04:00:56;13.40;99.90
34099;DHT22;20374;49.474;10.944;2023-06-10T04:03:29;13.50;99.90
34099;DHT22;20374;49.474;10.944;2023-06-10T04:05:55;13.50;99.90
34099;DHT22;20374;49.474;10.944;2023-06-10T04:08:21;13.60;99.90
34099;DHT22;20374;49.474;10.944;2023-06-10T04:10:47;13.70;99.90
34099;DHT22;20374;49.474;10.944;2023-06-10T04:13:13;13.70;99.90
34099;DHT22;20374;49.474;10.944;2023-06-10T04:15:48;13.70;99.90
34099;DHT22;20374;49.474;10.944;2023-06-10T04:18:16;13.80;99.90
34099;DHT22;20374;49.474;10.944;2023-06-10T04:20:43;13.80;99.90
34099;DHT22;20374;49.474;10.944;2023-06-10T04:23:10;13.90;99.90
34099;DHT22;20374;49.474;10.944;2023-06-10T04:25:38;14.00;99.90
34099;DHT22;20374;49.474;10.944;2023-06-10T04:28:04;14.20;99.90
34099;DHT22;20374;49.474;10.944;2023-06-10T04:30:31;14.70;99.90
34099;DHT22;20374;49.474;10.944;2023-06-10T04:32:58;15.40;99.90
34099;DHT22;20374;49.474;10.944;2023-06-10T04:35:25;16.20;99.90
34099;DHT22;20374;49.474;10.944;2023-06-10T04:37:54;16.70;99.90
34099;DHT22;20374;49.474;10.944;2023-06-10T04:40:20;17.30;99.90
34099;DHT22;20374;49.474;10.944;2023-06-10T04:42:47;17.80;99.90
34099;DHT22;20374;49.474;10.944;2023-06-10T04:45:13;18.40;99.90
34099;DHT22;20374;49.474;10.944;2023-06-10T04:47:42;18.80;99.90
34099;DHT22;20374;49.474;10.944;2023-06-10T04:50:10;19.30;99.90
34099;DHT22;20374;49.474;10.944;2023-06-10T04:52:36;19.50;99.90
34099;DHT22;20374;49.474;10.944;2023-06-10T04:55:02;19.90;99.90
34099;DHT22;20374;49.474;10.944;2023-06-10T04:57:28;20.10;99.90
34099;DHT22;20374;49.474;10.944;2023-06-10T04:59:54;20.20;99.90
34099;DHT22;20374;49.474;10.944;2023-06-10T05:02:20;19.80;99.90
34099;DHT22;20374;49.474;10.944;2023-06-10T05:04:45;19.10;99.90
34099;DHT22;20374;49.474;10.944;2023-06-10T05:07:12;18.60;99.90
34099;DHT22;20374;49.474;10.944;2023-06-10T05:09:37;18.10;99.90
34099;DHT22;20374;49.474;10.944;2023-06-10T05:12:04;18.20;99.90
34099;DHT22;20374;49.474;10.944;2023-06-10T05:14:30;18.80;99.90
34099;DHT22;20374;49.474;10.944;2023-06-10T05:16:57;19.50;99.90
34099;DHT22;20374;49.474;10.944;2023-06-10T05:19:23;20.10;99.90
34099;DHT22;20374;49.474;10.944;2023-06-10T05:21:49;20.60;99.90
34099;DHT22;20374;49.474;10.944;2023-06-10T05:24:15;20.70;99.90
34099;DHT22;20374;49.474;10.944;2023-06-10T05:26:40;20.50;99.90
34099;DHT22;20374;49.474;10.944;2023-06-10T05:29:07;20.10;99.90
34099;DHT22;20374;49.474;10.944;2023-06-10T05:31:34;19.70;99.90
34099;DHT22;20374;49.474;10.944;2023-06-10T05:34:00;19.50;99.90
34099;DHT22;20374;49.474;10.944;2023-06-10T05:36:26;19.60;99.90
34099;DHT22;20374;49.474;10.944;2023-06-10T05:38:53;20.00;99.90
34099;DHT22;20374;49.474;10.944;2023-06-10T05:41:18;20.30;99.90
34099;DHT22;20374;49.474;10.944;2023-06-10T05:43:44;20.30;99.90
34099;DHT22;20374;49.474;10.944;2023-06-10T05:46:11;19.80;99.90
34099;DHT22;20374;49.474;10.944;2023-06-10T05:48:37;19.10;99.90
34099;DHT22;20374;49.474;10.944;2023-06-10T05:51:03;18.60;99.90
34099;DHT22;20374;49.474;10.944;2023-06-10T05:53:28;18.30;99.90
34099;DHT22;20374;49.474;10.944;2023-06-10T05:55:55;18.10;99.90
34099;DHT22;20374;49.474;10.944;2023-06-10T05:58:23;17.90;99.90
34099;DHT22;20374;49.474;10.944;2023-06-10T06:00:49;17.80;99.90
34099;DHT22;20374;49.474;10.944;2023-06-10T06:03:16;17.70;99.90
34099;DHT22;20374;49.474;10.944;2023-06-10T06:05:42;17.80;99.90
34099;DHT22;20374;49.474;10.944;2023-06-10T06:08:10;17.90;99.90
34099;DHT22;20374;49.474;10.944;2023-06-10T06:10:36;17.90;99.90
34099;DHT22;20374;49.474;10.944;2023-06-10T06:13:02;17.90;99.90
34099;DHT22;20374;49.474;10.944;2023-06-10T06:15:28;18.00;99.90
34099;DHT22;20374;49.474;10.944;2023-06-10T06:17:54;18.10;99.90
34099;DHT22;20374;49.474;10.944;2023-06-10T06:20:21;18.10;99.90
34099;DHT22;20374;49.474;10.944;2023-06-10T06:22:47;18.20;99.90
34099;DHT22;20374;49.474;10.944;2023-06-10T06:25:13;18.30;99.90
34099;DHT22;20374;49.474;10.944;2023-06-10T06:27:39;18.30;99.90
34099;DHT22;20374;49.474;10.944;2023-06-10T06:30:05;18.50;99.90
34099;DHT22;20374;49.474;10.944;2023-06-10T06:32:31;18.60;99.90
34099;DHT22;20374;49.474;10.944;2023-06-10T06:34:57;18.60;99.90
34099;DHT22;20374;49.474;10.944;2023-06-10T06:37:24;18.60;99.90
34099;DHT22;20374;49.474;10.944;2023-06-10T06:39:58;18.60;99.90
34099;DHT22;20374;49.474;10.944;2023-06-10T06:42:24;18.80;99.90
34099;DHT22;20374;49.474;10.944;2023-06-10T06:45:10;18.90;99.90
34099;DHT22;20374;49.474;10.944;2023-06-10T06:47:37;19.00;99.90
34099;DHT22;20374;49.474;10.944;2023-06-10T06:50:03;19.00;99.90
34099;DHT22;20374;49.474;10.944;2023-06-10T06:52:29;19.10;99.90
34099;DHT22;20374;49.474;10.944;2023-06-10T06:54:55;19.30;99.90
34099;DHT22;20374;49.474;10.944;2023-06-10T06:57:21;19.40;99.90
34099;DHT22;20374;49.474;10.944;2023-06-10T06:59:47;19.50;99.90
34099;DHT22;20374;49.474;10.944;2023-06-10T07:02:13;19.70;99.90
34099;DHT22;20374;49.474;10.944;2023-06-10T07:04:39;20.00;99.90
34099;DHT22;20374;49.474;10.944;2023-06-10T07:07:09;20.20;99.90
34099;DHT22;20374;49.474;10.944;2023-06-10T07:09:37;20.60;99.90
34099;DHT22;20374;49.474;10.944;2023-06-10T07:12:03;21.20;99.90
34099;DHT22;20374;49.474;10.944;2023-06-10T07:14:30;21.50;99.90
34099;DHT22;20374;49.474;10.944;2023-06-10T07:16:56;21.60;99.90
34099;DHT22;20374;49.474;10.944;2023-06-10T07:19:22;21.90;99.90
34099;DHT22;20374;49.474;10.944;2023-06-10T07:21:47;22.20;99.90
34099;DHT22;20374;49.474;10.944;2023-06-10T07:24:13;22.40;99.90
34099;DHT22;20374;49.474;10.944;2023-06-10T07:26:39;22.60;99.90
34099;DHT22;20374;49.474;10.944;2023-06-10T07:29:05;22.80;99.90
34099;DHT22;20374;49.474;10.944;2023-06-10T07:31:31;22.70;99.90
34099;DHT22;20374;49.474;10.944;2023-06-10T07:33:57;22.70;99.90
34099;DHT22;20374;49.474;10.944;2023-06-10T07:36:23;22.80;99.90
34099;DHT22;20374;49.474;10.944;2023-06-10T07:38:48;22.60;99.90
34099;DHT22;20374;49.474;10.944;2023-06-10T07:41:15;22.50;99.90
34099;DHT22;20374;49.474;10.944;2023-06-10T07:43:43;22.30;99.90
34099;DHT22;20374;49.474;10.944;2023-06-10T07:46:09;22.30;99.90
34099;DHT22;20374;49.474;10.944;2023-06-10T07:48:35;22.20;99.90
34099;DHT22;20374;49.474;10.944;2023-06-10T07:51:00;22.20;99.90
34099;DHT22;20374;49.474;10.944;2023-06-10T07:53:26;22.60;99.90
34099;DHT22;20374;49.474;10.944;2023-06-10T07:55:52;23.20;99.90
34099;DHT22;20374;49.474;10.944;2023-06-10T07:58:18;23.30;99.90
34099;DHT22;20374;49.474;10.944;2023-06-10T08:00:44;23.20;99.90
34099;DHT22;20374;49.474;10.944;2023-06-10T08:03:10;23.20;99.70
34099;DHT22;20374;49.474;10.944;2023-06-10T08:05:36;23.10;99.90
34099;DHT22;20374;49.474;10.944;2023-06-10T08:08:01;23.30;99.70
34099;DHT22;20374;49.474;10.944;2023-06-10T08:10:27;23.80;98.20
34099;DHT22;20374;49.474;10.944;2023-06-10T08:12:53;24.00;95.90
34099;DHT22;20374;49.474;10.944;2023-06-10T08:15:19;24.50;94.30
34099;DHT22;20374;49.474;10.944;2023-06-10T08:17:45;24.30;94.20
34099;DHT22;20374;49.474;10.944;2023-06-10T08:20:11;24.10;95.00
34099;DHT22;20374;49.474;10.944;2023-06-10T08:22:37;24.10;95.60
34099;DHT22;20374;49.474;10.944;2023-06-10T08:25:03;24.10;94.80
34099;DHT22;20374;49.474;10.944;2023-06-10T08:27:29;23.90;94.80
34099;DHT22;20374;49.474;10.944;2023-06-10T08:29:55;23.70;94.40
34099;DHT22;20374;49.474;10.944;2023-06-10T08:32:21;23.50;95.60
34099;DHT22;20374;49.474;10.944;2023-06-10T08:34:47;23.50;95.90
34099;DHT22;20374;49.474;10.944;2023-06-10T08:37:13;23.40;96.20
34099;DHT22;20374;49.474;10.944;2023-06-10T08:39:39;23.40;95.40
34099;DHT22;20374;49.474;10.944;2023-06-10T08:42:11;23.30;94.90
34099;DHT22;20374;49.474;10.944;2023-06-10T08:44:42;23.40;95.00
34099;DHT22;20374;49.474;10.944;2023-06-10T08:47:16;23.40;94.00
34099;DHT22;20374;49.474;10.944;2023-06-10T08:49:44;23.60;94.20
34099;DHT22;20374;49.474;10.944;2023-06-10T08:52:20;23.70;94.30
34099;DHT22;20374;49.474;10.944;2023-06-10T08:55:13;23.90;93.70
34099;DHT22;20374;49.474;10.944;2023-06-10T08:57:43;24.10;94.00
34099;DHT22;20374;49.474;10.944;2023-06-10T09:00:12;24.30;94.50
34099;DHT22;20374;49.474;10.944;2023-06-10T09:02:38;24.30;92.60
34099;DHT22;20374;49.474;10.944;2023-06-10T09:05:05;24.20;92.70
34099;DHT22;20374;49.474;10.944;2023-06-10T09:07:31;24.30;92.90
34099;DHT22;20374;49.474;10.944;2023-06-10T09:09:57;24.70;93.30
34099;DHT22;20374;49.474;10.944;2023-06-10T09:12:24;25.10;93.00
34099;DHT22;20374;49.474;10.944;2023-06-10T09:14:50;25.50;91.10
34099;DHT22;20374;49.474;10.944;2023-06-10T09:17:17;25.80;89.80
34099;DHT22;20374;49.474;10.944;2023-06-10T09:19:44;26.10;87.90
34099;DHT22;20374;49.474;10.944;2023-06-10T09:22:11;26.40;88.60
34099;DHT22;20374;49.474;10.944;2023-06-10T09:24:37;26.90;87.60
34099;DHT22;20374;49.474;10.944;2023-06-10T09:27:05;27.40;84.40
34099;DHT22;20374;49.474;10.944;2023-06-10T09:32:13;28.20;81.90
34099;DHT22;20374;49.474;10.944;2023-06-10T09:34:40;28.60;80.20
34099;DHT22;20374;49.474;10.944;2023-06-10T09:37:07;28.30;80.50
34099;DHT22;20374;49.474;10.944;2023-06-10T09:39:34;28.60;79.10
34099;DHT22;20374;49.474;10.944;2023-06-10T09:42:00;29.20;76.50
34099;DHT22;20374;49.474;10.944;2023-06-10T09:44:26;30.10;78.10
34099;DHT22;20374;49.474;10.944;2023-06-10T09:46:52;30.00;73.80
34099;DHT22;20374;49.474;10.944;2023-06-10T09:49:20;29.30;75.80
34099;DHT22;20374;49.474;10.944;2023-06-10T09:51:53;30.00;75.60
34099;DHT22;20374;49.474;10.944;2023-06-10T09:54:20;31.00;71.70
34099;DHT22;20374;49.474;10.944;2023-06-10T09:56:52;31.50;68.20
34099;DHT22;20374;49.474;10.944;2023-06-10T09:59:30;30.90;70.60
34099;DHT22;20374;49.474;10.944;2023-06-10T10:02:00;31.00;68.60
34099;DHT22;20374;49.474;10.944;2023-06-10T10:04:26;30.80;68.70
34099;DHT22;20374;49.474;10.944;2023-06-10T10:06:52;30.40;70.80
34099;DHT22;20374;49.474;10.944;2023-06-10T10:09:18;29.70;69.90
34099;DHT22;20374;49.474;10.944;2023-06-10T10:11:45;29.30;69.80
34099;DHT22;20374;49.474;10.944;2023-06-10T10:14:13;28.90;74.80
34099;DHT22;20374;49.474;10.944;2023-06-10T10:16:41;28.90;73.30
34099;DHT22;20374;49.474;10.944;2023-06-10T10:19:11;29.00;71.90
34099;DHT22;20374;49.474;10.944;2023-06-10T10:21:49;28.70;74.20
34099;DHT22;20374;49.474;10.944;2023-06-10T10:24:21;28.20;73.10
34099;DHT22;20374;49.474;10.944;2023-06-10T10:26:49;29.00;73.40
34099;DHT22;20374;49.474;10.944;2023-06-10T10:29:31;30.00;73.00
34099;DHT22;20374;49.474;10.944;2023-06-10T10:31:58;31.40;67.10
34099;DHT22;20374;49.474;10.944;2023-06-10T10:34:53;32.40;64.80
34099;DHT22;20374;49.474;10.944;2023-06-10T10:37:22;31.90;63.70
34099;DHT22;20374;49.474;10.944;2023-06-10T10:39:49;30.90;66.60
34099;DHT22;20374;49.474;10.944;2023-06-10T10:42:16;30.40;67.60
34099;DHT22;20374;49.474;10.944;2023-06-10T10:44:43;29.90;65.70
34099;DHT22;20374;49.474;10.944;2023-06-10T10:47:10;29.20;69.70
34099;DHT22;20374;49.474;10.944;2023-06-10T10:49:37;28.90;70.20
34099;DHT22;20374;49.474;10.944;2023-06-10T10:52:04;28.40;71.80
34099;DHT22;20374;49.474;10.944;2023-06-10T10:54:34;27.90;73.00
34099;DHT22;20374;49.474;10.944;2023-06-10T10:57:09;27.50;74.00
34099;DHT22;20374;49.474;10.944;2023-06-10T11:02:18;26.50;77.20
34099;DHT22;20374;49.474;10.944;2023-06-10T11:04:48;26.00;78.20
34099;DHT22;20374;49.474;10.944;2023-06-10T11:07:15;25.50;79.10
34099;DHT22;20374;49.474;10.944;2023-06-10T11:09:58;25.40;79.60
34099;DHT22;20374;49.474;10.944;2023-06-10T11:15:32;24.90;80.00
34099;DHT22;20374;49.474;10.944;2023-06-10T11:21:00;24.90;82.80
34099;DHT22;20374;49.474;10.944;2023-06-10T11:26:12;25.00;83.40
34099;DHT22;20374;49.474;10.944;2023-06-10T11:29:00;25.00;84.40
34099;DHT22;20374;49.474;10.944;2023-06-10T11:31:26;25.50;81.10
34099;DHT22;20374;49.474;10.944;2023-06-10T11:33:57;25.70;80.80
34099;DHT22;20374;49.474;10.944;2023-06-10T11:36:25;25.60;80.70
34099;DHT22;20374;49.474;10.944;2023-06-10T11:39:11;25.60;82.00
34099;DHT22;20374;49.474;10.944;2023-06-10T11:41:38;26.00;82.50
34099;DHT22;20374;49.474;10.944;2023-06-10T11:44:13;26.20;83.80
34099;DHT22;20374;49.474;10.944;2023-06-10T11:46:39;25.90;81.00
34099;DHT22;20374;49.474;10.944;2023-06-10T11:49:06;25.80;80.90
34099;DHT22;20374;49.474;10.944;2023-06-10T11:51:39;26.20;81.00
34099;DHT22;20374;49.474;10.944;2023-06-10T11:54:08;26.40;79.20
34099;DHT22;20374;49.474;10.944;2023-06-10T11:56:34;26.70;79.40
34099;DHT22;20374;49.474;10.944;2023-06-10T11:59:02;27.30;77.50
34099;DHT22;20374;49.474;10.944;2023-06-10T12:01:37;27.90;76.70
34099;DHT22;20374;49.474;10.944;2023-06-10T12:04:08;28.40;73.90
34099;DHT22;20374;49.474;10.944;2023-06-10T12:06:47;29.00;74.70
34099;DHT22;20374;49.474;10.944;2023-06-10T12:09:21;29.10;71.40
34099;DHT22;20374;49.474;10.944;2023-06-10T12:11:57;29.50;72.00
34099;DHT22;20374;49.474;10.944;2023-06-10T12:14:50;30.00;69.00
34099;DHT22;20374;49.474;10.944;2023-06-10T12:17:17;29.30;69.70
34099;DHT22;20374;49.474;10.944;2023-06-10T12:19:43;28.70;72.20
34099;DHT22;20374;49.474;10.944;2023-06-10T12:22:09;28.10;72.20
34099;DHT22;20374;49.474;10.944;2023-06-10T12:24:44;27.80;74.00
34099;DHT22;20374;49.474;10.944;2023-06-10T12:27:13;27.40;75.90
34099;DHT22;20374;49.474;10.944;2023-06-10T12:29:39;27.70;75.00
34099;DHT22;20374;49.474;10.944;2023-06-10T12:32:17;28.40;71.30
34099;DHT22;20374;49.474;10.944;2023-06-10T12:34:44;29.10;69.90
34099;DHT22;20374;49.474;10.944;2023-06-10T12:37:12;29.50;68.70
34099;DHT22;20374;49.474;10.944;2023-06-10T12:39:41;30.30;67.70
34099;DHT22;20374;49.474;10.944;2023-06-10T12:42:12;30.90;65.50
34099;DHT22;20374;49.474;10.944;2023-06-10T12:44:41;31.50;63.00
34099;DHT22;20374;49.474;10.944;2023-06-10T12:47:09;31.80;63.20
34099;DHT22;20374;49.474;10.944;2023-06-10T12:49:36;32.00;60.50
34099;DHT22;20374;49.474;10.944;2023-06-10T12:52:03;32.50;60.70
34099;DHT22;20374;49.474;10.944;2023-06-10T12:54:29;33.10;57.90
34099;DHT22;20374;49.474;10.944;2023-06-10T12:56:55;32.70;58.30
34099;DHT22;20374;49.474;10.944;2023-06-10T12:59:21;32.50;59.00
34099;DHT22;20374;49.474;10.944;2023-06-10T13:01:53;32.70;57.30
34099;DHT22;20374;49.474;10.944;2023-06-10T13:04:20;33.00;58.10
34099;DHT22;20374;49.474;10.944;2023-06-10T13:06:47;33.00;59.80
34099;DHT22;20374;49.474;10.944;2023-06-10T13:09:15;32.70;59.90
34099;DHT22;20374;49.474;10.944;2023-06-10T13:11:41;32.30;58.60
34099;DHT22;20374;49.474;10.944;2023-06-10T13:14:08;31.30;59.30
34099;DHT22;20374;49.474;10.944;2023-06-10T13:16:35;30.20;63.30
34099;DHT22;20374;49.474;10.944;2023-06-10T13:19:04;29.40;65.60
34099;DHT22;20374;49.474;10.944;2023-06-10T13:21:32;28.90;65.90
34099;DHT22;20374;49.474;10.944;2023-06-10T13:23:58;28.30;67.50
34099;DHT22;20374;49.474;10.944;2023-06-10T13:26:24;27.70;69.40
34099;DHT22;20374;49.474;10.944;2023-06-10T13:28:50;27.40;69.70
34099;DHT22;20374;49.474;10.944;2023-06-10T13:31:16;27.20;71.50
34099;DHT22;20374;49.474;10.944;2023-06-10T13:33:41;27.40;70.00
34099;DHT22;20374;49.474;10.944;2023-06-10T13:36:09;28.00;71.50
34099;DHT22;20374;49.474;10.944;2023-06-10T13:38:35;29.00;68.90
34099;DHT22;20374;49.474;10.944;2023-06-10T13:41:01;29.80;69.00
34099;DHT22;20374;49.474;10.944;2023-06-10T13:43:27;30.70;66.00
34099;DHT22;20374;49.474;10.944;2023-06-10T13:45:54;31.30;64.40
34099;DHT22;20374;49.474;10.944;2023-06-10T13:48:20;31.50;63.20
34099;DHT22;20374;49.474;10.944;2023-06-10T13:50:46;31.40;59.60
34099;DHT22;20374;49.474;10.944;2023-06-10T13:53:12;30.90;61.60
34099;DHT22;20374;49.474;10.944;2023-06-10T13:55:38;31.10;59.80
34099;DHT22;20374;49.474;10.944;2023-06-10T13:58:06;31.00;59.10
34099;DHT22;20374;49.474;10.944;2023-06-10T14:00:32;30.60;64.00
34099;DHT22;20374;49.474;10.944;2023-06-10T14:02:58;29.70;64.40
34099;DHT22;20374;49.474;10.944;2023-06-10T14:05:24;29.30;65.30
34099;DHT22;20374;49.474;10.944;2023-06-10T14:07:50;28.70;67.40
34099;DHT22;20374;49.474;10.944;2023-06-10T14:10:15;28.10;68.20
34099;DHT22;20374;49.474;10.944;2023-06-10T14:12:41;27.80;69.30
34099;DHT22;20374;49.474;10.944;2023-06-10T14:15:07;27.70;69.60
34099;DHT22;20374;49.474;10.944;2023-06-10T14:17:33;27.40;70.50
34099;DHT22;20374;49.474;10.944;2023-06-10T14:19:59;27.30;72.40
34099;DHT22;20374;49.474;10.944;2023-06-10T14:22:25;27.00;70.40
34099;DHT22;20374;49.474;10.944;2023-06-10T14:24:51;26.80;73.10
34099;DHT22;20374;49.474;10.944;2023-06-10T14:27:17;26.70;73.10
34099;DHT22;20374;49.474;10.944;2023-06-10T14:29:43;26.50;71.60
34099;DHT22;20374;49.474;10.944;2023-06-10T14:32:08;26.50;71.70
34099;DHT22;20374;49.474;10.944;2023-06-10T14:34:35;26.60;70.80
34099;DHT22;20374;49.474;10.944;2023-06-10T14:37:01;26.60;69.40
34099;DHT22;20374;49.474;10.944;2023-06-10T14:39:28;26.60;72.00
34099;DHT22;20374;49.474;10.944;2023-06-10T14:41:54;27.10;72.90
34099;DHT22;20374;49.474;10.944;2023-06-10T14:44:20;27.60;71.60
34099;DHT22;20374;49.474;10.944;2023-06-10T14:46:46;28.30;72.30
34099;DHT22;20374;49.474;10.944;2023-06-10T14:49:13;28.70;67.60
34099;DHT22;20374;49.474;10.944;2023-06-10T14:51:38;28.80;68.20
34099;DHT22;20374;49.474;10.944;2023-06-10T14:54:05;28.70;66.90
34099;DHT22;20374;49.474;10.944;2023-06-10T14:56:31;28.30;67.70
34099;DHT22;20374;49.474;10.944;2023-06-10T14:58:56;28.10;68.70
34099;DHT22;20374;49.474;10.944;2023-06-10T15:01:22;28.00;69.20
34099;DHT22;20374;49.474;10.944;2023-06-10T15:03:48;28.00;67.60
34099;DHT22;20374;49.474;10.944;2023-06-10T15:06:14;28.00;68.10
34099;DHT22;20374;49.474;10.944;2023-06-10T15:08:42;28.10;67.30
34099;DHT22;20374;49.474;10.944;2023-06-10T15:11:08;28.20;67.90
34099;DHT22;20374;49.474;10.944;2023-06-10T15:13:34;28.30;66.90
34099;DHT22;20374;49.474;10.944;2023-06-10T15:16:00;28.20;65.40
34099;DHT22;20374;49.474;10.944;2023-06-10T15:18:26;28.00;64.20
34099;DHT22;20374;49.474;10.944;2023-06-10T15:20:51;27.90;65.70
34099;DHT22;20374;49.474;10.944;2023-06-10T15:23:17;27.80;67.10
34099;DHT22;20374;49.474;10.944;2023-06-10T15:25:43;27.80;66.60
34099;DHT22;20374;49.474;10.944;2023-06-10T15:28:09;27.70;66.90
34099;DHT22;20374;49.474;10.944;2023-06-10T15:30:35;27.50;67.10
34099;DHT22;20374;49.474;10.944;2023-06-10T15:33:02;27.30;68.40
34099;DHT22;20374;49.474;10.944;2023-06-10T15:35:28;27.40;68.80
34099;DHT22;20374;49.474;10.944;2023-06-10T15:37:55;27.60;68.60